Terminal Aerodrome Forecast
Issued by NWS Pocatello, ID

Home | Current Version | Previous Version | Text Only | Print | Product List | Glossary On
Versions: 1 2 3 4 5 6 7 8 9 10 11 12
000
FTUS45 KPIH 061120
TAFBYI
TAF
KBYI 061120Z 0612/0712 24011KT P6SM SCT100 BKN140
     FM062000 28008G16KT P6SM VCTS SCT070CB BKN120
     FM070200 24008KT P6SM VCSH SCT050 BKN100
     FM070700 22006KT P6SM -SHRA SCT035 OVC050=

USA.gov is the U.S. government's official web portal to all federal, state and local government web resources and services.